Ulan Bator, Mongolia
Current Conditions -  °F | °C
As of 2:30 PM on Wednesday 22 Oct 2014 (Local Time) from ZMUB Reporting Station
Broken Clouds Broken Clouds  
Wind Chill: 54°   Ceiling: 10000
Heat Index: 54°   Visibility: 6mi
Dew Point: 16°   Wind: 7mph
Humidity: 22%   Direction: 230°SW
Pressure: 29.88"   Gusts: NA
Location:  47.92°N, 106.91°E
Report Text: ZMUB 220630Z 23003MPS 180V270 9999 BKN100 12/M09 Q1012 NOSIG RMK QFE652.2 23 MOP
Loading
Personal Weather Stations






























Interactive Weather Map
Tropical Storm Tracking
New forecast layout! Learn more

10-Day Weather Forecast

Advertisements
Track Severe Weather on mobile